createdAt,value
2019-03-10T00:01:49.358Z,40.90
2019-03-10T00:04:16.282Z,40.90
2019-03-10T00:06:42.433Z,40.90
2019-03-10T00:09:08.584Z,41.00
2019-03-10T00:11:34.732Z,40.90
2019-03-10T00:14:00.881Z,41.10
2019-03-10T00:16:27.039Z,40.90
2019-03-10T00:18:53.192Z,41.00
2019-03-10T00:21:19.332Z,40.90
2019-03-10T00:23:45.480Z,41.20
2019-03-10T00:26:11.640Z,40.90
2019-03-10T00:28:37.787Z,41.00
2019-03-10T00:31:03.935Z,41.00
2019-03-10T00:33:30.105Z,41.20
2019-03-10T00:35:56.273Z,41.00
2019-03-10T00:38:22.421Z,41.00
2019-03-10T00:40:48.589Z,41.00
2019-03-10T00:43:15.504Z,40.90
2019-03-10T00:45:41.654Z,40.90
2019-03-10T00:48:07.820Z,40.90
2019-03-10T00:50:33.971Z,41.00
2019-03-10T00:53:00.135Z,40.90
2019-03-10T00:55:27.049Z,41.40
2019-03-10T00:57:53.211Z,41.30
2019-03-10T01:00:19.366Z,41.10
2019-03-10T01:02:45.512Z,41.20
2019-03-10T01:05:11.669Z,41.20
2019-03-10T01:07:38.579Z,41.30
2019-03-10T01:10:04.725Z,41.20
2019-03-10T01:12:30.881Z,41.40
2019-03-10T01:14:57.028Z,41.30
2019-03-10T01:17:23.214Z,41.40
2019-03-10T01:19:50.130Z,41.20
2019-03-10T01:22:16.307Z,41.10
2019-03-10T01:24:42.469Z,41.20
2019-03-10T01:27:08.646Z,41.40
2019-03-10T01:29:34.799Z,41.30
2019-03-10T01:32:00.968Z,41.30
2019-03-10T01:34:27.293Z,41.30
2019-03-10T01:36:53.447Z,41.40
2019-03-10T01:39:20.360Z,41.40
2019-03-10T01:41:46.501Z,41.40
2019-03-10T01:44:12.644Z,41.50
2019-03-10T01:46:38.804Z,41.50
2019-03-10T01:49:04.953Z,41.50
2019-03-10T01:51:31.102Z,41.50
2019-03-10T01:53:57.247Z,41.50
2019-03-10T01:56:23.419Z,41.60
2019-03-10T01:58:49.568Z,41.60
2019-03-10T02:01:15.733Z,41.70
2019-03-10T02:03:42.647Z,41.80
2019-03-10T02:06:08.793Z,41.80
2019-03-10T02:08:34.941Z,41.80
2019-03-10T02:11:01.087Z,42.00
2019-03-10T02:13:27.271Z,42.00
2019-03-10T02:15:54.186Z,42.00
2019-03-10T02:18:20.349Z,42.00
2019-03-10T02:20:47.297Z,42.10
2019-03-10T02:23:13.448Z,42.10
2019-03-10T02:25:39.603Z,42.10
2019-03-10T02:28:05.754Z,42.10
2019-03-10T02:30:31.918Z,42.10
2019-03-10T02:32:58.069Z,42.20
2019-03-10T02:35:24.223Z,42.30
2019-03-10T02:37:50.383Z,42.40
2019-03-10T02:40:16.542Z,42.40
2019-03-10T02:42:42.701Z,42.30
2019-03-10T02:45:08.863Z,42.30
2019-03-10T02:47:35.013Z,42.40
2019-03-10T02:50:01.191Z,42.50
2019-03-10T02:52:27.350Z,42.50
2019-03-10T02:54:53.525Z,42.60
2019-03-10T02:57:19.676Z,42.60
2019-03-10T02:59:45.840Z,42.60
2019-03-10T03:02:11.990Z,42.70
2019-03-10T03:04:38.141Z,42.80
2019-03-10T03:07:04.294Z,42.80
2019-03-10T03:09:30.441Z,42.80
2019-03-10T03:11:56.605Z,42.80
2019-03-10T03:14:22.749Z,42.80
2019-03-10T03:16:48.900Z,42.90
2019-03-10T03:19:15.049Z,42.90
2019-03-10T03:21:43.470Z,42.80
2019-03-10T03:24:08.157Z,42.90
2019-03-10T03:26:34.309Z,42.90
2019-03-10T03:29:00.452Z,43.00
2019-03-10T03:31:26.611Z,43.00
2019-03-10T03:33:52.795Z,43.10
2019-03-10T03:36:18.961Z,43.00
2019-03-10T03:38:46.355Z,43.00
2019-03-10T03:41:12.504Z,43.10
2019-03-10T03:43:38.669Z,43.00
2019-03-10T03:46:04.851Z,43.70
2019-03-10T03:48:31.007Z,43.10
2019-03-10T03:50:57.157Z,43.10
2019-03-10T03:53:23.319Z,43.10
2019-03-10T03:55:49.480Z,43.20
2019-03-10T03:58:15.630Z,43.20
2019-03-10T04:00:41.781Z,43.90
2019-03-10T04:03:07.931Z,43.20
2019-03-10T04:05:34.093Z,43.20
2019-03-10T04:08:00.407Z,43.30
2019-03-10T04:10:26.561Z,43.20
2019-03-10T04:12:52.723Z,43.30
2019-03-10T04:15:18.887Z,43.20
2019-03-10T04:17:45.038Z,43.20
2019-03-10T04:20:11.209Z,43.90
2019-03-10T04:22:37.523Z,43.30
2019-03-10T04:25:03.666Z,43.40
2019-03-10T04:27:29.828Z,43.40
2019-03-10T04:29:56.144Z,43.30
2019-03-10T04:32:22.305Z,43.40
2019-03-10T04:34:48.460Z,43.40
2019-03-10T04:37:14.636Z,43.40
2019-03-10T04:39:40.780Z,43.40
2019-03-10T04:42:06.931Z,43.40
2019-03-10T04:44:33.088Z,44.10
2019-03-10T04:46:59.253Z,43.40
2019-03-10T04:49:25.405Z,43.50
2019-03-10T04:51:52.316Z,43.50
2019-03-10T04:54:18.469Z,43.60
2019-03-10T04:56:44.623Z,43.50
2019-03-10T04:59:11.260Z,43.60
2019-03-10T05:01:37.404Z,43.60
2019-03-10T05:04:03.561Z,43.50
2019-03-10T05:06:29.714Z,43.60
2019-03-10T05:08:55.864Z,43.60
2019-03-10T05:11:22.017Z,43.60
2019-03-10T05:13:48.166Z,43.60
2019-03-10T05:16:14.317Z,43.70
2019-03-10T05:18:41.230Z,43.60
2019-03-10T05:21:07.372Z,43.60
2019-03-10T05:23:33.546Z,43.70
2019-03-10T05:25:59.722Z,43.70
2019-03-10T05:28:25.883Z,43.70
2019-03-10T05:30:52.041Z,43.80
2019-03-10T05:33:18.194Z,43.80
2019-03-10T05:35:44.340Z,43.70
2019-03-10T05:38:10.492Z,43.70
2019-03-10T05:40:36.645Z,43.70
2019-03-10T05:43:02.790Z,43.80
2019-03-10T05:45:28.946Z,43.80
2019-03-10T05:47:55.094Z,43.70
2019-03-10T05:50:21.244Z,43.90
2019-03-10T05:52:47.393Z,43.80
2019-03-10T05:55:13.544Z,43.80
2019-03-10T05:57:39.873Z,44.50
2019-03-10T06:00:06.026Z,43.80
2019-03-10T06:02:32.192Z,43.90
2019-03-10T06:04:58.344Z,43.90
2019-03-10T06:07:24.489Z,43.90
2019-03-10T06:09:50.677Z,43.90
2019-03-10T06:12:16.826Z,43.90
2019-03-10T06:14:42.979Z,44.00
2019-03-10T06:17:09.124Z,43.90
2019-03-10T06:19:35.278Z,44.00
2019-03-10T06:22:01.424Z,44.00
2019-03-10T06:24:27.575Z,44.10
2019-03-10T06:26:53.722Z,44.10
2019-03-10T06:29:19.867Z,44.00
2019-03-10T06:31:46.025Z,44.10
2019-03-10T06:34:12.170Z,44.10
2019-03-10T06:36:38.316Z,44.10
2019-03-10T06:39:04.477Z,44.10
2019-03-10T06:41:30.618Z,44.10
2019-03-10T06:43:56.764Z,44.20
2019-03-10T06:46:22.913Z,44.20
2019-03-10T06:48:49.062Z,44.10
2019-03-10T06:51:15.212Z,44.10
2019-03-10T06:53:41.360Z,44.20
2019-03-10T06:56:08.275Z,44.20
2019-03-10T06:58:34.420Z,44.20
2019-03-10T07:01:00.594Z,44.20
2019-03-10T07:03:26.893Z,44.20
2019-03-10T07:05:53.042Z,44.30
2019-03-10T07:08:19.197Z,44.20
2019-03-10T07:10:45.353Z,44.30
2019-03-10T07:13:12.260Z,44.30
2019-03-10T07:15:38.422Z,44.20
2019-03-10T07:18:04.571Z,44.30
2019-03-10T07:20:30.721Z,45.00
2019-03-10T07:22:56.869Z,45.60
2019-03-10T07:25:23.025Z,45.60
2019-03-10T07:27:49.175Z,45.60
2019-03-10T07:30:15.324Z,45.40
2019-03-10T07:32:41.483Z,45.10
2019-03-10T07:35:07.626Z,45.00
2019-03-10T07:37:34.538Z,44.30
2019-03-10T07:40:00.695Z,44.40
2019-03-10T07:42:26.849Z,44.20
2019-03-10T07:44:52.996Z,43.90
2019-03-10T07:47:19.145Z,43.80
2019-03-10T07:49:45.300Z,43.70
2019-03-10T07:52:19.806Z,43.70
2019-03-10T07:54:37.811Z,43.50
2019-03-10T07:57:03.980Z,43.50
2019-03-10T07:59:30.131Z,43.40
2019-03-10T08:01:56.276Z,43.40
2019-03-10T08:04:22.441Z,43.40
2019-03-10T08:06:48.589Z,43.20
2019-03-10T08:09:14.732Z,43.20
2019-03-10T08:11:40.886Z,43.20
2019-03-10T08:14:07.037Z,43.20
2019-03-10T08:16:33.189Z,43.20
2019-03-10T08:18:59.340Z,43.10
2019-03-10T08:21:25.494Z,43.10
2019-03-10T08:23:51.648Z,43.20
2019-03-10T08:26:17.798Z,43.20
2019-03-10T08:28:43.949Z,43.20
2019-03-10T08:31:10.110Z,43.20
2019-03-10T08:33:36.474Z,43.10
2019-03-10T08:36:02.633Z,43.20
2019-03-10T08:38:28.781Z,43.10
2019-03-10T08:40:54.932Z,43.00
2019-03-10T08:43:21.841Z,43.00
2019-03-10T08:45:47.991Z,43.00
2019-03-10T08:48:14.162Z,42.90
2019-03-10T08:50:40.349Z,43.10
2019-03-10T08:53:06.531Z,43.10
2019-03-10T08:55:32.850Z,43.10
2019-03-10T08:57:59.000Z,42.90
2019-03-10T09:00:25.152Z,43.10
2019-03-10T09:02:52.068Z,43.00
2019-03-10T09:05:18.220Z,43.00
2019-03-10T09:07:44.374Z,42.90
2019-03-10T09:10:10.524Z,42.90
2019-03-10T09:12:36.676Z,42.80
2019-03-10T09:15:02.830Z,43.00
2019-03-10T09:17:28.990Z,43.00
2019-03-10T09:19:55.137Z,43.10
2019-03-10T09:22:21.285Z,43.10
2019-03-10T09:24:47.446Z,43.80
2019-03-10T09:27:13.601Z,43.10
2019-03-10T09:29:39.759Z,42.90
2019-03-10T09:32:05.914Z,43.00
2019-03-10T09:34:32.074Z,43.00
2019-03-10T09:36:58.223Z,42.90
2019-03-10T09:39:24.407Z,43.00
2019-03-10T09:41:50.567Z,43.10
2019-03-10T09:44:16.718Z,43.10
2019-03-10T09:46:42.868Z,43.10
2019-03-10T09:49:09.018Z,43.20
2019-03-10T09:51:35.169Z,43.10
2019-03-10T09:54:01.313Z,43.30
2019-03-10T09:56:27.469Z,43.50
2019-03-10T09:58:53.616Z,43.60
2019-03-10T10:01:19.786Z,43.60
2019-03-10T10:03:45.934Z,43.70
2019-03-10T10:06:12.160Z,43.70
2019-03-10T10:08:38.332Z,43.60
2019-03-10T10:11:04.488Z,43.80
2019-03-10T10:13:30.634Z,43.90
2019-03-10T10:15:56.841Z,44.00
2019-03-10T10:18:23.017Z,43.90
2019-03-10T10:20:49.196Z,44.00
2019-03-10T10:23:15.349Z,44.10
2019-03-10T10:25:41.530Z,44.00
2019-03-10T10:28:07.688Z,44.10
2019-03-10T10:30:33.860Z,44.20
2019-03-10T10:33:00.025Z,44.30
2019-03-10T10:35:26.194Z,44.20
2019-03-10T10:37:52.349Z,44.30
2019-03-10T10:40:18.605Z,44.30
2019-03-10T10:42:44.760Z,44.50
2019-03-10T10:45:10.909Z,44.50
2019-03-10T10:47:37.057Z,44.60
2019-03-10T10:50:03.217Z,45.30
2019-03-10T10:52:29.402Z,44.70
2019-03-10T10:54:55.588Z,44.80
2019-03-10T10:57:21.771Z,45.00
2019-03-10T10:59:47.929Z,44.80
2019-03-10T11:02:14.096Z,44.90
2019-03-10T11:04:40.254Z,44.90
2019-03-10T11:07:06.434Z,45.00
2019-03-10T11:09:32.588Z,45.40
2019-03-10T11:11:59.293Z,45.30
2019-03-10T11:14:25.440Z,45.40
2019-03-10T11:16:51.609Z,45.60
2019-03-10T11:19:17.764Z,45.80
2019-03-10T11:21:43.945Z,45.80
2019-03-10T11:24:10.116Z,45.90
2019-03-10T11:26:36.269Z,46.20
2019-03-10T11:29:03.904Z,46.00
2019-03-10T11:31:28.652Z,46.30
2019-03-10T11:33:54.812Z,46.40
2019-03-10T11:36:20.968Z,46.40
2019-03-10T11:38:47.137Z,46.50
2019-03-10T11:41:13.312Z,46.40
2019-03-10T11:43:40.220Z,46.70
2019-03-10T11:46:06.397Z,46.70
2019-03-10T11:48:32.564Z,46.60
2019-03-10T11:50:58.718Z,46.60
2019-03-10T11:53:25.838Z,46.60
2019-03-10T11:55:51.091Z,46.60
2019-03-10T11:58:18.077Z,46.90
2019-03-10T12:00:44.222Z,46.90
2019-03-10T12:03:10.371Z,46.80
2019-03-10T12:05:36.530Z,46.90
2019-03-10T12:08:02.684Z,46.90
2019-03-10T12:10:28.837Z,47.00
2019-03-10T12:12:54.980Z,47.00
2019-03-10T12:15:21.132Z,47.00
2019-03-10T12:17:47.288Z,47.00
2019-03-10T12:20:13.434Z,47.00
2019-03-10T12:22:39.585Z,47.10
2019-03-10T12:25:06.524Z,47.10
2019-03-10T12:27:32.669Z,47.10
2019-03-10T12:29:58.844Z,47.10
2019-03-10T12:32:24.988Z,46.80
2019-03-10T12:34:51.152Z,47.00
2019-03-10T12:37:17.308Z,47.00
2019-03-10T12:39:43.485Z,47.20
2019-03-10T12:42:14.547Z,47.20
2019-03-10T12:44:40.717Z,47.20
2019-03-10T12:47:06.864Z,47.30
2019-03-10T12:49:33.039Z,47.40
2019-03-10T12:51:59.199Z,47.30
2019-03-10T12:54:25.336Z,47.30
2019-03-10T12:56:51.488Z,47.20
2019-03-10T12:59:17.641Z,47.20
2019-03-10T13:01:43.792Z,47.10
2019-03-10T13:04:09.941Z,47.10
2019-03-10T13:06:36.090Z,47.00
2019-03-10T13:09:02.261Z,47.00
2019-03-10T13:11:28.396Z,47.00
2019-03-10T13:13:54.545Z,46.90
2019-03-10T13:16:20.696Z,46.90
2019-03-10T13:18:46.852Z,46.90
2019-03-10T13:21:13.001Z,46.80
2019-03-10T13:23:39.154Z,46.80
2019-03-10T13:26:05.307Z,46.90
2019-03-10T13:28:31.478Z,46.90
2019-03-10T13:30:57.650Z,46.80
2019-03-10T13:33:23.828Z,46.90
2019-03-10T13:35:49.993Z,46.90
2019-03-10T13:38:16.146Z,47.00
2019-03-10T13:40:42.315Z,47.10
2019-03-10T13:43:08.478Z,47.20
2019-03-10T13:45:34.653Z,47.30
2019-03-10T13:48:00.820Z,47.20
2019-03-10T13:50:27.734Z,47.40
2019-03-10T13:52:53.899Z,47.30
2019-03-10T13:55:20.053Z,47.40
2019-03-10T13:57:46.206Z,47.20
2019-03-10T14:00:12.597Z,47.80
2019-03-10T14:02:38.753Z,47.10
2019-03-10T14:05:04.904Z,47.10
2019-03-10T14:07:31.069Z,47.00
2019-03-10T14:09:57.226Z,46.40
2019-03-10T14:12:23.397Z,46.30
2019-03-10T14:14:49.561Z,46.00
2019-03-10T14:17:15.751Z,45.30
2019-03-10T14:19:41.916Z,45.30
2019-03-10T14:22:08.088Z,45.10
2019-03-10T14:24:34.239Z,44.80
2019-03-10T14:27:01.181Z,44.30
2019-03-10T14:29:27.326Z,44.20
2019-03-10T14:31:53.496Z,44.00
2019-03-10T14:34:19.669Z,43.80
2019-03-10T14:36:45.840Z,43.50
2019-03-10T14:39:12.001Z,42.90
2019-03-10T14:41:38.938Z,42.60
2019-03-10T14:44:05.138Z,42.30
2019-03-10T14:46:32.057Z,41.60
2019-03-10T14:48:58.213Z,41.70
2019-03-10T14:51:24.366Z,41.60
2019-03-10T14:53:50.514Z,41.10
2019-03-10T14:56:16.674Z,40.70
2019-03-10T14:58:42.824Z,40.60
2019-03-10T15:01:09.000Z,40.40
2019-03-10T15:03:35.160Z,40.00
2019-03-10T15:06:01.334Z,40.00
2019-03-10T15:08:28.250Z,39.90
2019-03-10T15:10:54.424Z,39.80
2019-03-10T15:13:20.608Z,39.70
2019-03-10T15:15:46.753Z,39.40
2019-03-10T15:18:12.926Z,39.30
2019-03-10T15:20:39.065Z,39.10
2019-03-10T15:23:05.297Z,39.10
2019-03-10T15:25:31.452Z,39.00
2019-03-10T15:27:57.628Z,38.90
2019-03-10T15:30:23.780Z,38.90
2019-03-10T15:32:49.973Z,38.80
2019-03-10T15:35:16.229Z,38.80
2019-03-10T15:37:42.403Z,38.60
2019-03-10T15:40:08.570Z,38.90
2019-03-10T15:42:34.804Z,38.90
2019-03-10T15:45:00.956Z,38.60
2019-03-10T15:47:27.235Z,38.70
2019-03-10T15:49:53.408Z,38.50
2019-03-10T15:52:19.557Z,38.40
2019-03-10T15:54:45.717Z,38.50
2019-03-10T15:57:11.869Z,38.60
2019-03-10T15:59:38.036Z,38.60
2019-03-10T16:02:04.194Z,38.50
2019-03-10T16:04:30.365Z,38.50
2019-03-10T16:06:56.531Z,38.40
2019-03-10T16:09:22.698Z,38.30
2019-03-10T16:11:48.866Z,38.40
2019-03-10T16:14:15.160Z,38.40
2019-03-10T16:16:41.314Z,38.40
2019-03-10T16:19:07.464Z,38.40
2019-03-10T16:21:33.621Z,38.40
2019-03-10T16:23:59.770Z,38.40
2019-03-10T16:26:25.921Z,38.50
2019-03-10T16:28:52.093Z,38.40
2019-03-10T16:31:18.236Z,38.60
2019-03-10T16:33:44.398Z,38.50
2019-03-10T16:36:10.702Z,38.40
2019-03-10T16:38:36.860Z,38.30
2019-03-10T16:41:03.018Z,38.50
2019-03-10T16:43:32.461Z,38.30
2019-03-10T16:45:58.613Z,38.50
2019-03-10T16:48:24.839Z,38.10
2019-03-10T16:50:51.047Z,38.20
2019-03-10T16:53:17.206Z,37.80
2019-03-10T16:55:43.373Z,38.00
2019-03-10T16:58:09.533Z,38.00
2019-03-10T17:00:35.706Z,37.80
2019-03-10T17:03:01.866Z,37.80
2019-03-10T17:05:28.028Z,37.80
2019-03-10T17:07:54.167Z,37.80
2019-03-10T17:10:20.338Z,37.60
2019-03-10T17:12:46.486Z,38.30
2019-03-10T17:15:12.636Z,37.70
2019-03-10T17:17:39.707Z,37.40
2019-03-10T17:20:05.857Z,37.40
2019-03-10T17:22:32.009Z,37.40
2019-03-10T17:24:58.156Z,37.60
2019-03-10T17:27:24.309Z,37.30
2019-03-10T17:29:50.548Z,37.40
2019-03-10T17:32:16.700Z,37.50
2019-03-10T17:34:42.857Z,37.60
2019-03-10T17:37:09.781Z,37.60
2019-03-10T17:39:35.932Z,37.50
2019-03-10T17:42:02.108Z,37.80
2019-03-10T17:44:28.256Z,37.70
2019-03-10T17:46:54.416Z,37.80
2019-03-10T17:49:21.328Z,37.70
2019-03-10T17:51:47.529Z,37.70
2019-03-10T17:54:13.746Z,37.70
2019-03-10T17:56:39.918Z,37.70
2019-03-10T17:59:06.075Z,37.80
2019-03-10T18:01:32.253Z,37.70
2019-03-10T18:03:58.518Z,37.70
2019-03-10T18:06:24.688Z,37.70
2019-03-10T18:08:50.838Z,37.80
2019-03-10T18:11:16.981Z,37.70
2019-03-10T18:13:43.126Z,37.60
2019-03-10T18:16:09.272Z,37.70
2019-03-10T18:18:35.438Z,37.70
2019-03-10T18:21:01.853Z,37.30
2019-03-10T18:23:27.997Z,38.30
2019-03-10T18:25:54.144Z,38.40
2019-03-10T18:28:20.288Z,38.20
2019-03-10T18:30:46.451Z,38.40
2019-03-10T18:33:12.616Z,38.20
2019-03-10T18:35:38.773Z,38.60
2019-03-10T18:38:06.725Z,38.60
2019-03-10T18:40:32.946Z,38.50
2019-03-10T18:42:59.115Z,38.50
2019-03-10T18:45:25.264Z,38.40
2019-03-10T18:47:51.437Z,39.00
2019-03-10T18:50:17.779Z,38.30
2019-03-10T18:52:43.950Z,38.00
2019-03-10T18:55:10.157Z,38.10
2019-03-10T18:57:36.392Z,38.10
2019-03-10T19:00:02.548Z,38.20
2019-03-10T19:02:28.702Z,38.30
2019-03-10T19:04:54.859Z,38.20
2019-03-10T19:07:21.019Z,38.20
2019-03-10T19:09:47.176Z,38.00
2019-03-10T19:12:13.329Z,38.30
2019-03-10T19:14:39.495Z,39.10
2019-03-10T19:17:05.677Z,38.40
2019-03-10T19:19:32.104Z,38.50
2019-03-10T19:21:58.784Z,38.50
2019-03-10T19:24:24.938Z,38.40
2019-03-10T19:26:51.093Z,38.70
2019-03-10T19:29:17.245Z,38.70
2019-03-10T19:31:43.392Z,38.70
2019-03-10T19:34:09.538Z,38.60
2019-03-10T19:36:35.693Z,38.50
2019-03-10T19:39:01.879Z,38.60
2019-03-10T19:41:28.029Z,38.60
2019-03-10T19:43:54.177Z,38.60
2019-03-10T19:46:20.334Z,38.50
2019-03-10T19:48:46.491Z,38.40
2019-03-10T19:51:12.637Z,38.40
2019-03-10T19:53:38.786Z,38.20
2019-03-10T19:56:04.941Z,38.50
2019-03-10T19:58:31.095Z,38.30
2019-03-10T20:00:58.012Z,38.20
2019-03-10T20:03:24.156Z,38.30
2019-03-10T20:05:50.301Z,37.80
2019-03-10T20:08:16.451Z,37.90
2019-03-10T20:10:44.916Z,38.00
2019-03-10T20:13:11.089Z,38.00
2019-03-10T20:15:37.256Z,38.00
2019-03-10T20:18:03.405Z,38.00
2019-03-10T20:20:29.571Z,37.70
2019-03-10T20:22:55.731Z,37.70
2019-03-10T20:25:21.888Z,37.80
2019-03-10T20:27:48.047Z,37.80
2019-03-10T20:30:14.218Z,37.60
2019-03-10T20:32:40.369Z,37.50
2019-03-10T20:35:06.588Z,37.70
2019-03-10T20:37:32.757Z,37.20
2019-03-10T20:39:59.681Z,36.60
2019-03-10T20:42:26.605Z,36.80
2019-03-10T20:44:52.757Z,36.80
2019-03-10T20:47:18.915Z,36.70
2019-03-10T20:49:45.073Z,37.30
2019-03-10T20:52:11.226Z,37.00
2019-03-10T20:54:37.377Z,37.10
2019-03-10T20:57:03.551Z,36.90
2019-03-10T20:59:29.711Z,36.70
2019-03-10T21:01:55.870Z,36.80
2019-03-10T21:04:22.910Z,36.70
2019-03-10T21:06:48.225Z,36.70
2019-03-10T21:09:14.372Z,37.10
2019-03-10T21:11:40.541Z,37.00
2019-03-10T21:14:06.692Z,37.10
2019-03-10T21:16:33.354Z,37.20
2019-03-10T21:18:59.501Z,37.00
2019-03-10T21:21:25.681Z,36.80
2019-03-10T21:23:51.839Z,36.80
2019-03-10T21:26:20.806Z,37.10
2019-03-10T21:28:46.960Z,36.90
2019-03-10T21:31:13.108Z,37.00
2019-03-10T21:33:39.269Z,37.80
2019-03-10T21:36:06.189Z,36.70
2019-03-10T21:38:32.341Z,36.70
2019-03-10T21:40:58.492Z,36.90
2019-03-10T21:43:24.643Z,37.00
2019-03-10T21:45:50.796Z,36.90
2019-03-10T21:48:17.708Z,36.70
2019-03-10T21:50:43.852Z,36.70
2019-03-10T21:53:10.006Z,36.90
2019-03-10T21:55:36.156Z,36.70
2019-03-10T21:58:02.338Z,37.00
2019-03-10T22:00:29.266Z,36.80
2019-03-10T22:02:55.432Z,36.80
2019-03-10T22:05:21.586Z,36.80
2019-03-10T22:07:47.752Z,36.70
2019-03-10T22:10:13.894Z,37.00
2019-03-10T22:12:40.088Z,36.70
2019-03-10T22:15:06.254Z,36.90
2019-03-10T22:17:32.410Z,36.50
2019-03-10T22:19:58.557Z,36.90
2019-03-10T22:22:24.715Z,36.70
2019-03-10T22:24:50.865Z,36.70
2019-03-10T22:27:17.008Z,36.80
2019-03-10T22:29:43.170Z,36.90
2019-03-10T22:32:09.319Z,36.70
2019-03-10T22:34:35.461Z,36.70
2019-03-10T22:37:01.619Z,36.70
2019-03-10T22:39:27.767Z,36.60
2019-03-10T22:41:53.926Z,36.70
2019-03-10T22:44:20.068Z,36.60
2019-03-10T22:46:46.221Z,36.50
2019-03-10T22:49:12.389Z,36.40
2019-03-10T22:51:38.549Z,36.50
2019-03-10T22:54:04.714Z,36.60
2019-03-10T22:56:30.864Z,36.70
2019-03-10T22:58:57.021Z,36.80
2019-03-10T23:01:23.164Z,36.80
2019-03-10T23:03:50.359Z,36.80
2019-03-10T23:06:16.516Z,36.70
2019-03-10T23:08:42.679Z,36.70
2019-03-10T23:11:08.849Z,36.70
2019-03-10T23:13:35.012Z,36.80
2019-03-10T23:16:01.165Z,36.50
2019-03-10T23:18:27.314Z,36.70
2019-03-10T23:20:53.461Z,36.60
2019-03-10T23:23:19.620Z,36.70
2019-03-10T23:25:45.768Z,36.40
2019-03-10T23:28:11.924Z,36.40
2019-03-10T23:30:38.836Z,36.80
2019-03-10T23:33:04.987Z,36.70
2019-03-10T23:35:31.152Z,36.80
2019-03-10T23:37:57.312Z,36.70
2019-03-10T23:40:23.483Z,36.60
2019-03-10T23:42:50.401Z,36.50
2019-03-10T23:45:16.574Z,36.50
2019-03-10T23:47:42.723Z,37.40
2019-03-10T23:50:08.893Z,36.70
2019-03-10T23:52:35.044Z,36.80
2019-03-10T23:55:01.199Z,36.80
2019-03-10T23:57:27.352Z,36.60
2019-03-10T23:59:53.504Z,36.60
